createdAt,value
2023-01-06T00:01:26.642Z,99341.88
2023-01-06T00:05:31.724Z,99335.03
2023-01-06T00:09:34.788Z,99327.97
2023-01-06T00:13:38.016Z,99322.69
2023-01-06T00:17:40.655Z,99334.81
2023-01-06T00:21:43.963Z,99336.66
2023-01-06T00:25:51.050Z,99338.50
2023-01-06T00:29:53.841Z,99329.03
2023-01-06T00:33:57.653Z,99330.22
2023-01-06T00:38:00.106Z,99336.56
2023-01-06T00:42:05.222Z,99337.81
2023-01-06T00:46:08.241Z,99335.75
2023-01-06T00:50:11.262Z,99330.75
2023-01-06T00:54:16.066Z,99332.56
2023-01-06T00:58:18.622Z,99336.28
2023-01-06T01:02:26.915Z,99329.31
2023-01-06T01:06:33.413Z,99341.25
2023-01-06T01:10:36.646Z,99336.38
2023-01-06T01:14:47.397Z,99348.94
2023-01-06T01:18:50.828Z,99349.75
2023-01-06T01:22:53.971Z,99352.75
2023-01-06T01:26:56.879Z,99354.25
2023-01-06T01:31:01.279Z,99347.66
2023-01-06T01:35:03.708Z,99347.91
2023-01-06T01:39:06.125Z,99350.88
2023-01-06T01:43:12.206Z,99344.19
2023-01-06T01:47:19.409Z,99333.81
2023-01-06T01:51:28.480Z,99340.28
2023-01-06T01:55:32.533Z,99332.19
2023-01-06T01:59:38.545Z,99333.94
2023-01-06T02:03:42.763Z,99326.78
2023-01-06T02:07:47.229Z,99327.34
2023-01-06T02:11:52.274Z,99328.75
2023-01-06T02:16:07.092Z,99335.47
2023-01-06T02:20:21.608Z,99341.25
2023-01-06T02:24:48.413Z,99333.63
2023-01-06T02:29:18.919Z,99318.03
2023-01-06T02:33:31.540Z,99312.16
2023-01-06T02:37:34.868Z,99324.75
2023-01-06T02:42:10.308Z,99318.22
2023-01-06T02:46:28.930Z,99313.81
2023-01-06T02:50:41.227Z,99313.56
2023-01-06T02:54:54.245Z,99311.16
2023-01-06T02:59:14.647Z,99308.03
2023-01-06T03:03:23.171Z,99305.72
2023-01-06T03:07:31.095Z,99301.25
2023-01-06T03:11:36.301Z,99302.97
2023-01-06T03:15:39.873Z,99297.31
2023-01-06T03:19:44.994Z,99296.94
2023-01-06T03:23:49.652Z,99288.63
2023-01-06T03:27:52.369Z,99281.13
2023-01-06T03:32:13.140Z,99277.78
2023-01-06T03:36:29.222Z,99281.94
2023-01-06T03:40:56.164Z,99287.00
2023-01-06T03:45:12.168Z,99282.25
2023-01-06T03:49:14.629Z,99279.16
2023-01-06T03:53:37.449Z,99276.84
2023-01-06T03:57:45.028Z,99283.91
2023-01-06T04:01:49.757Z,99281.16
2023-01-06T04:05:54.588Z,99279.53
2023-01-06T04:09:58.351Z,99278.94
2023-01-06T04:14:01.161Z,99279.63
2023-01-06T04:18:04.371Z,99271.09
2023-01-06T04:22:10.767Z,99278.94
2023-01-06T04:26:13.154Z,99279.84
2023-01-06T04:30:23.364Z,99276.03
2023-01-06T04:34:26.461Z,99280.06
2023-01-06T04:38:29.888Z,99278.91
2023-01-06T04:42:52.969Z,99280.50
2023-01-06T04:46:55.641Z,99295.97
2023-01-06T04:51:10.156Z,99298.38
2023-01-06T04:55:12.670Z,99292.28
2023-01-06T04:59:14.890Z,99290.66
2023-01-06T05:03:17.014Z,99295.53
2023-01-06T05:07:19.602Z,99295.53
2023-01-06T05:11:23.824Z,99295.38
2023-01-06T05:15:26.434Z,99303.25
2023-01-06T05:19:29.246Z,99307.53
2023-01-06T05:23:31.573Z,99298.63
2023-01-06T05:27:34.033Z,99308.69
2023-01-06T05:31:36.204Z,99310.88
2023-01-06T05:35:38.995Z,99307.16
2023-01-06T05:39:41.209Z,99316.09
2023-01-06T05:43:43.512Z,99313.75
2023-01-06T05:47:46.293Z,99321.75
2023-01-06T05:51:51.384Z,99326.94
2023-01-06T05:55:53.757Z,99333.06
2023-01-06T05:59:55.996Z,99334.44
2023-01-06T06:03:59.013Z,99328.22
2023-01-06T06:08:01.270Z,99332.94
2023-01-06T06:12:03.574Z,99337.94
2023-01-06T06:16:11.991Z,99340.00
2023-01-06T06:20:14.447Z,99341.63
2023-01-06T06:24:16.620Z,99343.97
2023-01-06T06:28:19.142Z,99346.00
2023-01-06T06:32:21.307Z,99345.19
2023-01-06T06:36:24.240Z,99347.28
2023-01-06T06:40:27.102Z,99349.94
2023-01-06T06:44:29.389Z,99353.06
2023-01-06T06:48:31.880Z,99358.13
2023-01-06T06:52:34.053Z,99355.50
2023-01-06T06:56:36.169Z,99363.69
2023-01-06T07:00:38.354Z,99370.28
2023-01-06T07:04:40.650Z,99369.09
2023-01-06T07:08:44.536Z,99370.94
2023-01-06T07:12:46.780Z,99373.59
2023-01-06T07:16:48.985Z,99385.84
2023-01-06T07:20:55.639Z,99386.19
2023-01-06T07:24:58.257Z,99389.41
2023-01-06T07:29:00.403Z,99396.41
2023-01-06T07:33:04.000Z,99396.91
2023-01-06T07:37:06.335Z,99408.75
2023-01-06T07:41:08.607Z,99410.16
2023-01-06T07:45:11.546Z,99419.97
2023-01-06T07:49:14.101Z,99420.34
2023-01-06T07:53:16.319Z,99413.81
2023-01-06T07:57:18.494Z,99428.69
2023-01-06T08:01:20.996Z,99424.69
2023-01-06T08:05:24.020Z,99432.31
2023-01-06T08:09:26.292Z,99421.84
2023-01-06T08:13:28.836Z,99430.88
2023-01-06T08:17:32.351Z,99432.72
2023-01-06T08:21:34.714Z,99438.28
2023-01-06T08:25:37.222Z,99443.38
2023-01-06T08:29:40.049Z,99442.81
2023-01-06T08:33:43.844Z,99446.28
2023-01-06T08:37:47.586Z,99446.50
2023-01-06T08:41:53.690Z,99448.00
2023-01-06T08:46:07.940Z,99449.38
2023-01-06T08:50:21.652Z,99455.97
2023-01-06T08:54:30.569Z,99453.97
2023-01-06T08:58:35.685Z,99450.94
2023-01-06T09:02:41.829Z,99449.66
2023-01-06T09:06:50.180Z,99454.84
2023-01-06T09:10:55.409Z,99456.41
2023-01-06T09:15:03.369Z,99452.94
2023-01-06T09:19:14.466Z,99456.03
2023-01-06T09:23:26.767Z,99450.16
2023-01-06T09:27:33.295Z,99461.59
2023-01-06T09:31:47.626Z,99457.06
2023-01-06T09:35:58.084Z,99457.72
2023-01-06T09:40:04.573Z,99459.50
2023-01-06T09:44:20.088Z,99457.81
2023-01-06T09:48:45.049Z,99453.19
2023-01-06T09:53:11.914Z,99459.44
2023-01-06T09:57:36.289Z,99452.50
2023-01-06T10:01:51.707Z,99452.91
2023-01-06T10:11:23.005Z,99437.13
2023-01-06T10:15:55.862Z,99436.06
2023-01-06T10:20:32.119Z,99432.66
2023-01-06T10:24:45.671Z,99427.16
2023-01-06T10:28:53.273Z,99412.31
2023-01-06T10:32:56.847Z,99415.03
2023-01-06T10:37:11.113Z,99414.06
2023-01-06T10:41:43.663Z,99401.03
2023-01-06T10:45:47.879Z,99399.78
2023-01-06T10:49:50.298Z,99388.97
2023-01-06T10:53:52.740Z,99397.78
2023-01-06T10:58:00.210Z,99389.75
2023-01-06T11:02:02.544Z,99390.19
2023-01-06T11:06:10.472Z,99392.13
2023-01-06T11:10:30.152Z,99388.53
2023-01-06T11:14:33.962Z,99386.56
2023-01-06T11:18:39.377Z,99385.56
2023-01-06T11:22:42.664Z,99382.84
2023-01-06T11:26:56.315Z,99374.66
2023-01-06T11:31:03.039Z,99368.81
2023-01-06T11:35:10.310Z,99365.63
2023-01-06T11:39:21.754Z,99369.16
2023-01-06T11:43:32.807Z,99364.34
2023-01-06T11:47:35.194Z,99363.84
2023-01-06T11:51:43.580Z,99356.88
2023-01-06T11:56:05.311Z,99353.94
2023-01-06T12:00:29.001Z,99352.31
2023-01-06T12:04:41.500Z,99349.09
2023-01-06T12:09:14.929Z,99352.81
2023-01-06T12:13:17.252Z,99342.63
2023-01-06T12:17:58.425Z,99332.47
2023-01-06T12:22:02.073Z,99342.59
2023-01-06T12:26:11.889Z,99339.44
2023-01-06T12:30:24.169Z,99334.63
2023-01-06T12:34:48.650Z,99324.19
2023-01-06T12:38:56.638Z,99323.63
2023-01-06T12:43:19.658Z,99314.31
2023-01-06T12:47:31.245Z,99319.38
2023-01-06T12:51:42.057Z,99320.69
2023-01-06T12:56:21.965Z,99317.22
2023-01-06T13:00:42.777Z,99313.22
2023-01-06T13:04:53.985Z,99314.28
2023-01-06T13:09:29.297Z,99308.13
2023-01-06T13:13:52.826Z,99308.94
2023-01-06T13:18:19.265Z,99305.16
2023-01-06T13:22:43.654Z,99302.75
2023-01-06T13:27:00.338Z,99303.00
2023-01-06T13:31:23.358Z,99308.91
2023-01-06T13:35:58.490Z,99311.91
2023-01-06T13:40:07.989Z,99310.31
2023-01-06T13:44:23.350Z,99307.63
2023-01-06T13:48:35.137Z,99307.59
2023-01-06T13:52:37.493Z,99311.09
2023-01-06T13:56:40.404Z,99308.38
2023-01-06T14:00:43.311Z,99312.91
2023-01-06T14:04:47.393Z,99315.00
2023-01-06T14:08:52.996Z,99315.28
2023-01-06T14:12:55.855Z,99323.03
2023-01-06T14:16:58.342Z,99313.63
2023-01-06T14:21:18.338Z,99318.97
2023-01-06T14:25:23.777Z,99320.03
2023-01-06T14:29:42.103Z,99322.66
2023-01-06T14:33:45.157Z,99321.53
2023-01-06T14:37:56.936Z,99334.09
2023-01-06T14:42:15.079Z,99331.38
2023-01-06T14:46:26.217Z,99328.16
2023-01-06T14:50:47.477Z,99320.38
2023-01-06T14:54:52.276Z,99327.88
2023-01-06T14:59:04.769Z,99323.53
2023-01-06T15:03:21.196Z,99322.75
2023-01-06T15:07:23.307Z,99319.78
2023-01-06T15:11:27.086Z,99319.25
2023-01-06T15:15:31.816Z,99318.72
2023-01-06T15:19:35.643Z,99319.19
2023-01-06T15:23:50.913Z,99325.78
2023-01-06T15:27:55.616Z,99323.13
2023-01-06T15:31:58.419Z,99322.06
2023-01-06T15:36:01.316Z,99326.00
2023-01-06T15:40:05.343Z,99325.47
2023-01-06T15:44:31.971Z,99319.03
2023-01-06T15:48:38.278Z,99317.38
2023-01-06T15:52:47.293Z,99325.94
2023-01-06T15:56:49.602Z,99323.22
2023-01-06T16:01:20.462Z,99325.59
2023-01-06T16:05:45.115Z,99332.78
2023-01-06T16:09:55.377Z,99328.75
2023-01-06T16:14:01.275Z,99340.16
2023-01-06T16:18:05.473Z,99329.41
2023-01-06T16:22:23.829Z,99337.03
2023-01-06T16:26:32.765Z,99343.19
2023-01-06T16:30:37.386Z,99349.03
2023-01-06T16:34:51.863Z,99350.53
2023-01-06T16:38:57.996Z,99356.94
2023-01-06T16:43:05.981Z,99357.41
2023-01-06T16:47:18.634Z,99364.06
2023-01-06T16:51:30.310Z,99372.56
2023-01-06T16:55:36.294Z,99366.63
2023-01-06T16:59:40.403Z,99361.28
2023-01-06T17:03:47.584Z,99356.09
2023-01-06T17:08:00.210Z,99359.94
2023-01-06T17:12:38.934Z,99360.56
2023-01-06T17:16:44.189Z,99363.47
2023-01-06T17:20:50.893Z,99367.75
2023-01-06T17:25:05.617Z,99369.63
2023-01-06T17:29:20.161Z,99369.38
2023-01-06T17:33:27.708Z,99378.09
2023-01-06T17:37:31.530Z,99382.19
2023-01-06T17:41:37.133Z,99386.16
2023-01-06T17:45:41.265Z,99383.13
2023-01-06T17:49:56.492Z,99377.28
2023-01-06T17:54:21.649Z,99377.28
2023-01-06T17:58:32.791Z,99373.50
2023-01-06T18:02:57.068Z,99372.41
2023-01-06T18:07:05.599Z,99377.25
2023-01-06T18:11:24.563Z,99375.63
2023-01-06T18:15:33.144Z,99385.16
2023-01-06T18:19:41.107Z,99385.00
2023-01-06T18:23:53.374Z,99391.38
2023-01-06T18:28:01.690Z,99381.06
2023-01-06T18:32:33.361Z,99373.63
2023-01-06T18:36:37.867Z,99388.81
2023-01-06T18:40:43.804Z,99379.91
2023-01-06T18:44:47.097Z,99389.72
2023-01-06T18:48:52.995Z,99388.78
2023-01-06T18:53:02.104Z,99395.97
2023-01-06T18:57:30.124Z,99394.81
2023-01-06T19:01:38.403Z,99391.94
2023-01-06T19:05:42.712Z,99395.44
2023-01-06T19:09:51.031Z,99400.16
2023-01-06T19:14:11.209Z,99397.97
2023-01-06T19:18:18.309Z,99394.84
2023-01-06T19:22:30.409Z,99396.84
2023-01-06T19:26:41.652Z,99394.75
2023-01-06T19:30:57.676Z,99394.91
2023-01-06T19:35:27.702Z,99391.09
2023-01-06T19:39:47.630Z,99388.28
2023-01-06T19:44:09.266Z,99390.59
2023-01-06T19:48:27.457Z,99388.97
2023-01-06T19:52:39.584Z,99391.63
2023-01-06T19:56:44.783Z,99395.53
2023-01-06T20:00:54.069Z,99398.28
2023-01-06T20:04:59.116Z,99390.94
2023-01-06T20:09:06.426Z,99396.09
2023-01-06T20:13:13.447Z,99397.38
2023-01-06T20:17:19.640Z,99402.16
2023-01-06T20:21:31.841Z,99402.16
2023-01-06T20:25:37.906Z,99407.47
2023-01-06T20:29:44.377Z,99408.81
2023-01-06T20:33:48.137Z,99399.13
2023-01-06T20:37:55.174Z,99402.03
2023-01-06T20:42:08.872Z,99405.56
2023-01-06T20:46:21.461Z,99404.28
2023-01-06T20:50:29.031Z,99393.28
2023-01-06T20:54:38.996Z,99392.59
2023-01-06T20:58:45.644Z,99388.06
2023-01-06T21:02:50.827Z,99396.06
2023-01-06T21:06:59.077Z,99396.38
2023-01-06T21:11:19.656Z,99391.03
2023-01-06T21:15:29.385Z,99398.94
2023-01-06T21:19:34.994Z,99394.09
2023-01-06T21:23:45.898Z,99405.00
2023-01-06T21:27:51.409Z,99393.94
2023-01-06T21:31:55.859Z,99400.22
2023-01-06T21:36:02.171Z,99397.00
2023-01-06T21:40:10.572Z,99405.72
2023-01-06T21:44:14.826Z,99404.59
2023-01-06T21:48:19.218Z,99403.50
2023-01-06T21:52:23.070Z,99399.34
2023-01-06T21:56:27.112Z,99410.25
2023-01-06T22:00:37.843Z,99409.44
2023-01-06T22:04:45.504Z,99405.22
2023-01-06T22:08:56.473Z,99405.22
2023-01-06T22:13:03.467Z,99408.81
2023-01-06T22:17:13.072Z,99410.91
2023-01-06T22:21:17.141Z,99404.28
2023-01-06T22:25:22.357Z,99399.66
2023-01-06T22:29:27.248Z,99403.94
2023-01-06T22:33:32.165Z,99395.94
2023-01-06T22:37:37.832Z,99407.25
2023-01-06T22:41:45.259Z,99405.19
2023-01-06T22:45:58.394Z,99399.22
2023-01-06T22:50:09.366Z,99403.19
2023-01-06T22:54:14.751Z,99400.97
2023-01-06T22:58:20.366Z,99393.81
2023-01-06T23:02:26.175Z,99404.16
2023-01-06T23:06:31.496Z,99401.91
2023-01-06T23:10:39.200Z,99396.69
2023-01-06T23:14:44.702Z,99394.09
2023-01-06T23:18:52.938Z,99392.34
2023-01-06T23:23:01.488Z,99396.69
2023-01-06T23:27:04.983Z,99396.19
2023-01-06T23:31:16.181Z,99397.97
2023-01-06T23:35:21.288Z,99392.66
2023-01-06T23:39:27.072Z,99390.72
2023-01-06T23:43:34.760Z,99383.75
2023-01-06T23:47:42.339Z,99383.94
2023-01-06T23:51:48.755Z,99389.03
2023-01-06T23:56:03.238Z,99382.00
